4CA3 weather

Camp Parks Heliport
Pleasanton, California, United States

Public forecast

Using degrees Fahrenheit for public forecast. Weather courtesy of forecast.io.

METAR (pilot weather report)

Closest report is Livermore Municipal Airport, 3.6 nm (6.6 km) ESE. Retrieved 2019/09/21 11:53 UTC (28 minutes ago):

KLVK 211153Z AUTO 00000KT 10SM CLR 13/07 A2995 RMK AO2 SLP140 T01330072 10178 20122 51004

TAF (pilot weather forecast)

Closest forecast is Livermore Municipal Airport, 3.6 nm (6.6 km) ESE. Retrieved 2019/09/21 12:28 UTC (0 seconds ago):

TAF KLVK 211126Z 2112/2212 VRB03KT P6SM SKC FM212100 28009KT P6SM SKC FM220400 VRB03KT P6SM SKC